sensor_id;sensor_type;location;lat;lon;timestamp;temperature;humidity
37886;DHT22;23726;52.520;13.434;2022-09-21T00:00:41;22.60;44.00
37886;DHT22;23726;52.520;13.434;2022-09-21T00:03:07;22.60;44.20
37886;DHT22;23726;52.520;13.434;2022-09-21T00:05:33;22.60;43.90
37886;DHT22;23726;52.520;13.434;2022-09-21T00:08:00;22.60;44.20
37886;DHT22;23726;52.520;13.434;2022-09-21T00:10:27;22.60;44.10
37886;DHT22;23726;52.520;13.434;2022-09-21T00:12:52;22.60;43.90
37886;DHT22;23726;52.520;13.434;2022-09-21T00:15:18;22.60;44.00
37886;DHT22;23726;52.520;13.434;2022-09-21T00:17:45;22.60;44.10
37886;DHT22;23726;52.520;13.434;2022-09-21T00:20:14;22.60;44.10
37886;DHT22;23726;52.520;13.434;2022-09-21T00:22:40;22.60;44.00
37886;DHT22;23726;52.520;13.434;2022-09-21T00:25:08;22.60;43.90
37886;DHT22;23726;52.520;13.434;2022-09-21T00:27:33;22.60;43.90
37886;DHT22;23726;52.520;13.434;2022-09-21T00:29:59;22.60;43.80
37886;DHT22;23726;52.520;13.434;2022-09-21T00:32:30;22.60;43.80
37886;DHT22;23726;52.520;13.434;2022-09-21T00:34:56;22.60;44.00
37886;DHT22;23726;52.520;13.434;2022-09-21T00:37:22;22.60;44.30
37886;DHT22;23726;52.520;13.434;2022-09-21T00:39:48;22.60;44.10
37886;DHT22;23726;52.520;13.434;2022-09-21T00:42:23;22.60;44.10
37886;DHT22;23726;52.520;13.434;2022-09-21T00:44:49;22.60;44.00
37886;DHT22;23726;52.520;13.434;2022-09-21T00:47:21;22.60;44.30
37886;DHT22;23726;52.520;13.434;2022-09-21T00:49:50;22.60;44.20
37886;DHT22;23726;52.520;13.434;2022-09-21T00:52:19;22.60;44.10
37886;DHT22;23726;52.520;13.434;2022-09-21T00:55:00;22.50;43.70
37886;DHT22;23726;52.520;13.434;2022-09-21T00:57:29;22.60;43.70
37886;DHT22;23726;52.520;13.434;2022-09-21T01:00:01;22.50;43.60
37886;DHT22;23726;52.520;13.434;2022-09-21T01:02:28;22.50;43.70
37886;DHT22;23726;52.520;13.434;2022-09-21T01:04:54;22.50;43.50
37886;DHT22;23726;52.520;13.434;2022-09-21T01:07:27;22.50;43.60
37886;DHT22;23726;52.520;13.434;2022-09-21T01:09:56;22.50;43.50
37886;DHT22;23726;52.520;13.434;2022-09-21T01:15:57;22.50;43.70
37886;DHT22;23726;52.520;13.434;2022-09-21T01:18:43;22.50;44.10
37886;DHT22;23726;52.520;13.434;2022-09-21T01:21:21;22.50;43.50
37886;DHT22;23726;52.520;13.434;2022-09-21T01:24:07;22.50;43.50
37886;DHT22;23726;52.520;13.434;2022-09-21T01:26:55;22.50;43.50
37886;DHT22;23726;52.520;13.434;2022-09-21T01:29:46;22.50;43.40
37886;DHT22;23726;52.520;13.434;2022-09-21T01:32:22;22.50;43.50
37886;DHT22;23726;52.520;13.434;2022-09-21T01:34:53;22.50;43.50
37886;DHT22;23726;52.520;13.434;2022-09-21T01:37:24;22.50;43.40
37886;DHT22;23726;52.520;13.434;2022-09-21T01:39:53;22.50;43.40
37886;DHT22;23726;52.520;13.434;2022-09-21T01:42:22;22.50;43.80
37886;DHT22;23726;52.520;13.434;2022-09-21T01:44:49;22.50;43.50
37886;DHT22;23726;52.520;13.434;2022-09-21T01:47:16;22.50;43.50
37886;DHT22;23726;52.520;13.434;2022-09-21T01:49:49;22.50;43.80
37886;DHT22;23726;52.520;13.434;2022-09-21T01:52:36;22.50;43.50
37886;DHT22;23726;52.520;13.434;2022-09-21T01:55:11;22.50;43.60
37886;DHT22;23726;52.520;13.434;2022-09-21T01:58:10;22.50;43.50
37886;DHT22;23726;52.520;13.434;2022-09-21T02:00:38;22.50;43.40
37886;DHT22;23726;52.520;13.434;2022-09-21T02:03:20;22.50;43.50
37886;DHT22;23726;52.520;13.434;2022-09-21T02:05:46;22.50;43.50
37886;DHT22;23726;52.520;13.434;2022-09-21T02:08:12;22.50;43.50
37886;DHT22;23726;52.520;13.434;2022-09-21T02:10:46;22.50;43.50
37886;DHT22;23726;52.520;13.434;2022-09-21T02:13:15;22.50;43.50
37886;DHT22;23726;52.520;13.434;2022-09-21T02:16:09;22.50;43.60
37886;DHT22;23726;52.520;13.434;2022-09-21T02:19:08;22.50;43.60
37886;DHT22;23726;52.520;13.434;2022-09-21T02:24:56;22.50;43.60
37886;DHT22;23726;52.520;13.434;2022-09-21T02:33:07;22.40;43.50
37886;DHT22;23726;52.520;13.434;2022-09-21T02:35:51;22.50;43.70
37886;DHT22;23726;52.520;13.434;2022-09-21T02:38:33;22.40;43.60
37886;DHT22;23726;52.520;13.434;2022-09-21T02:41:18;22.50;43.60
37886;DHT22;23726;52.520;13.434;2022-09-21T02:46:25;22.40;43.80
37886;DHT22;23726;52.520;13.434;2022-09-21T02:48:59;22.40;43.90
37886;DHT22;23726;52.520;13.434;2022-09-21T02:51:30;22.40;43.80
37886;DHT22;23726;52.520;13.434;2022-09-21T02:53:59;22.50;43.90
37886;DHT22;23726;52.520;13.434;2022-09-21T02:56:27;22.50;43.70
37886;DHT22;23726;52.520;13.434;2022-09-21T02:58:58;22.40;43.70
37886;DHT22;23726;52.520;13.434;2022-09-21T03:01:25;22.40;43.70
37886;DHT22;23726;52.520;13.434;2022-09-21T03:03:53;22.40;43.70
37886;DHT22;23726;52.520;13.434;2022-09-21T03:06:19;22.40;43.90
37886;DHT22;23726;52.520;13.434;2022-09-21T03:08:44;22.40;44.00
37886;DHT22;23726;52.520;13.434;2022-09-21T03:11:10;22.40;43.80
37886;DHT22;23726;52.520;13.434;2022-09-21T03:13:38;22.40;43.90
37886;DHT22;23726;52.520;13.434;2022-09-21T03:16:07;22.40;43.80
37886;DHT22;23726;52.520;13.434;2022-09-21T03:18:33;22.40;43.90
37886;DHT22;23726;52.520;13.434;2022-09-21T03:21:00;22.40;43.90
37886;DHT22;23726;52.520;13.434;2022-09-21T03:23:26;22.40;44.10
37886;DHT22;23726;52.520;13.434;2022-09-21T03:25:52;22.40;44.10
37886;DHT22;23726;52.520;13.434;2022-09-21T03:28:19;22.40;43.90
37886;DHT22;23726;52.520;13.434;2022-09-21T03:30:47;22.40;43.40
37886;DHT22;23726;52.520;13.434;2022-09-21T03:33:14;22.40;44.00
37886;DHT22;23726;52.520;13.434;2022-09-21T03:35:41;22.40;44.00
37886;DHT22;23726;52.520;13.434;2022-09-21T03:38:08;22.40;43.80
37886;DHT22;23726;52.520;13.434;2022-09-21T03:40:33;22.40;44.10
37886;DHT22;23726;52.520;13.434;2022-09-21T03:42:59;22.40;43.80
37886;DHT22;23726;52.520;13.434;2022-09-21T03:45:26;22.40;43.80
37886;DHT22;23726;52.520;13.434;2022-09-21T03:47:54;22.40;43.90
37886;DHT22;23726;52.520;13.434;2022-09-21T03:50:21;22.40;43.80
37886;DHT22;23726;52.520;13.434;2022-09-21T03:52:46;22.40;43.90
37886;DHT22;23726;52.520;13.434;2022-09-21T03:55:12;22.40;44.00
37886;DHT22;23726;52.520;13.434;2022-09-21T03:57:37;22.40;44.10
37886;DHT22;23726;52.520;13.434;2022-09-21T04:00:06;22.40;43.90
37886;DHT22;23726;52.520;13.434;2022-09-21T04:02:35;22.40;43.80
37886;DHT22;23726;52.520;13.434;2022-09-21T04:05:02;22.40;43.90
37886;DHT22;23726;52.520;13.434;2022-09-21T04:07:31;22.40;43.90
37886;DHT22;23726;52.520;13.434;2022-09-21T04:09:59;22.40;44.00
37886;DHT22;23726;52.520;13.434;2022-09-21T04:12:24;22.40;44.00
37886;DHT22;23726;52.520;13.434;2022-09-21T04:14:50;22.40;44.00
37886;DHT22;23726;52.520;13.434;2022-09-21T04:17:16;22.40;44.10
37886;DHT22;23726;52.520;13.434;2022-09-21T04:19:41;22.40;44.10
37886;DHT22;23726;52.520;13.434;2022-09-21T04:22:10;22.40;44.20
37886;DHT22;23726;52.520;13.434;2022-09-21T04:24:36;22.40;44.00
37886;DHT22;23726;52.520;13.434;2022-09-21T04:27:05;22.40;44.00
37886;DHT22;23726;52.520;13.434;2022-09-21T04:29:31;22.40;44.20
37886;DHT22;23726;52.520;13.434;2022-09-21T04:31:56;22.40;43.90
37886;DHT22;23726;52.520;13.434;2022-09-21T04:34:23;22.40;44.10
37886;DHT22;23726;52.520;13.434;2022-09-21T04:36:48;22.40;44.10
37886;DHT22;23726;52.520;13.434;2022-09-21T04:39:14;22.40;43.90
37886;DHT22;23726;52.520;13.434;2022-09-21T04:41:39;22.40;44.00
37886;DHT22;23726;52.520;13.434;2022-09-21T04:44:06;22.40;44.00
37886;DHT22;23726;52.520;13.434;2022-09-21T04:46:32;22.40;44.00
37886;DHT22;23726;52.520;13.434;2022-09-21T04:48:58;22.40;44.10
37886;DHT22;23726;52.520;13.434;2022-09-21T04:51:24;22.40;44.00
37886;DHT22;23726;52.520;13.434;2022-09-21T04:53:50;22.40;44.10
37886;DHT22;23726;52.520;13.434;2022-09-21T04:56:16;22.40;44.10
37886;DHT22;23726;52.520;13.434;2022-09-21T04:58:42;22.40;43.90
37886;DHT22;23726;52.520;13.434;2022-09-21T05:01:08;22.40;44.00
37886;DHT22;23726;52.520;13.434;2022-09-21T05:03:34;22.40;44.00
37886;DHT22;23726;52.520;13.434;2022-09-21T05:06:01;22.40;43.90
37886;DHT22;23726;52.520;13.434;2022-09-21T05:08:27;22.40;44.00
37886;DHT22;23726;52.520;13.434;2022-09-21T05:11:14;22.40;43.70
37886;DHT22;23726;52.520;13.434;2022-09-21T05:13:46;22.40;43.90
37886;DHT22;23726;52.520;13.434;2022-09-21T05:16:14;22.40;44.00
37886;DHT22;23726;52.520;13.434;2022-09-21T05:18:40;22.40;44.00
37886;DHT22;23726;52.520;13.434;2022-09-21T05:21:05;22.40;43.80
37886;DHT22;23726;52.520;13.434;2022-09-21T05:23:31;22.40;43.70
37886;DHT22;23726;52.520;13.434;2022-09-21T05:25:58;22.40;43.70
37886;DHT22;23726;52.520;13.434;2022-09-21T05:28:24;22.40;43.90
37886;DHT22;23726;52.520;13.434;2022-09-21T05:31:43;22.40;43.70
37886;DHT22;23726;52.520;13.434;2022-09-21T05:34:10;22.40;44.00
37886;DHT22;23726;52.520;13.434;2022-09-21T05:36:58;22.40;43.70
37886;DHT22;23726;52.520;13.434;2022-09-21T05:39:26;22.40;43.80
37886;DHT22;23726;52.520;13.434;2022-09-21T05:41:51;22.40;43.60
37886;DHT22;23726;52.520;13.434;2022-09-21T05:44:18;22.40;43.80
37886;DHT22;23726;52.520;13.434;2022-09-21T05:46:54;22.40;43.80
37886;DHT22;23726;52.520;13.434;2022-09-21T05:49:41;22.40;43.70
37886;DHT22;23726;52.520;13.434;2022-09-21T05:57:40;22.40;43.70
37886;DHT22;23726;52.520;13.434;2022-09-21T06:00:18;22.40;43.70
37886;DHT22;23726;52.520;13.434;2022-09-21T06:02:55;22.40;43.60
37886;DHT22;23726;52.520;13.434;2022-09-21T06:05:24;22.40;43.80
37886;DHT22;23726;52.520;13.434;2022-09-21T06:07:50;22.40;43.60
37886;DHT22;23726;52.520;13.434;2022-09-21T06:10:17;22.40;43.60
37886;DHT22;23726;52.520;13.434;2022-09-21T06:12:44;22.40;43.70
37886;DHT22;23726;52.520;13.434;2022-09-21T06:15:13;22.40;43.80
37886;DHT22;23726;52.520;13.434;2022-09-21T06:17:39;22.40;43.50
37886;DHT22;23726;52.520;13.434;2022-09-21T06:20:05;22.40;43.70
37886;DHT22;23726;52.520;13.434;2022-09-21T06:22:33;22.40;43.70
37886;DHT22;23726;52.520;13.434;2022-09-21T06:24:58;22.40;43.80
37886;DHT22;23726;52.520;13.434;2022-09-21T06:27:24;22.40;43.80
37886;DHT22;23726;52.520;13.434;2022-09-21T06:29:52;22.40;43.80
37886;DHT22;23726;52.520;13.434;2022-09-21T06:32:17;22.40;43.80
37886;DHT22;23726;52.520;13.434;2022-09-21T06:34:43;22.40;43.80
37886;DHT22;23726;52.520;13.434;2022-09-21T06:37:09;22.40;43.80
37886;DHT22;23726;52.520;13.434;2022-09-21T06:39:36;22.40;43.80
37886;DHT22;23726;52.520;13.434;2022-09-21T06:42:02;22.40;43.80
37886;DHT22;23726;52.520;13.434;2022-09-21T06:44:27;22.40;43.80
37886;DHT22;23726;52.520;13.434;2022-09-21T06:46:54;22.40;43.80
37886;DHT22;23726;52.520;13.434;2022-09-21T06:49:19;22.40;44.00
37886;DHT22;23726;52.520;13.434;2022-09-21T06:51:46;22.40;43.90
37886;DHT22;23726;52.520;13.434;2022-09-21T06:54:12;22.40;43.90
37886;DHT22;23726;52.520;13.434;2022-09-21T06:56:37;22.40;43.70
37886;DHT22;23726;52.520;13.434;2022-09-21T06:59:04;22.40;44.10
37886;DHT22;23726;52.520;13.434;2022-09-21T07:01:29;22.40;44.40
37886;DHT22;23726;52.520;13.434;2022-09-21T07:03:56;22.40;44.10
37886;DHT22;23726;52.520;13.434;2022-09-21T07:06:21;22.40;43.90
37886;DHT22;23726;52.520;13.434;2022-09-21T07:08:51;22.40;43.90
37886;DHT22;23726;52.520;13.434;2022-09-21T07:11:16;22.40;44.10
37886;DHT22;23726;52.520;13.434;2022-09-21T07:13:42;22.40;43.90
37886;DHT22;23726;52.520;13.434;2022-09-21T07:16:08;22.40;43.90
37886;DHT22;23726;52.520;13.434;2022-09-21T07:18:44;22.40;44.00
37886;DHT22;23726;52.520;13.434;2022-09-21T07:21:10;22.40;43.50
37886;DHT22;23726;52.520;13.434;2022-09-21T07:23:36;22.40;44.20
37886;DHT22;23726;52.520;13.434;2022-09-21T07:26:07;22.40;43.50
37886;DHT22;23726;52.520;13.434;2022-09-21T07:28:33;22.40;43.60
37886;DHT22;23726;52.520;13.434;2022-09-21T07:31:05;22.40;43.80
37886;DHT22;23726;52.520;13.434;2022-09-21T07:33:33;22.40;43.70
37886;DHT22;23726;52.520;13.434;2022-09-21T07:36:01;22.40;43.50
37886;DHT22;23726;52.520;13.434;2022-09-21T07:38:28;22.40;43.80
37886;DHT22;23726;52.520;13.434;2022-09-21T07:40:53;22.40;43.90
37886;DHT22;23726;52.520;13.434;2022-09-21T07:43:19;22.40;44.00
37886;DHT22;23726;52.520;13.434;2022-09-21T07:45:52;22.40;43.90
37886;DHT22;23726;52.520;13.434;2022-09-21T07:48:19;22.40;43.90
37886;DHT22;23726;52.520;13.434;2022-09-21T07:50:44;22.40;43.80
37886;DHT22;23726;52.520;13.434;2022-09-21T07:53:10;22.40;43.70
37886;DHT22;23726;52.520;13.434;2022-09-21T07:55:38;22.40;43.60
37886;DHT22;23726;52.520;13.434;2022-09-21T07:58:03;22.40;43.40
37886;DHT22;23726;52.520;13.434;2022-09-21T08:00:49;22.40;43.70
37886;DHT22;23726;52.520;13.434;2022-09-21T08:03:14;22.40;44.30
37886;DHT22;23726;52.520;13.434;2022-09-21T08:05:40;22.40;44.20
37886;DHT22;23726;52.520;13.434;2022-09-21T08:08:06;22.40;44.20
37886;DHT22;23726;52.520;13.434;2022-09-21T08:10:32;22.40;44.20
37886;DHT22;23726;52.520;13.434;2022-09-21T08:13:00;22.40;44.00
37886;DHT22;23726;52.520;13.434;2022-09-21T08:15:25;22.40;43.80
37886;DHT22;23726;52.520;13.434;2022-09-21T08:17:52;22.40;44.10
37886;DHT22;23726;52.520;13.434;2022-09-21T08:20:18;22.40;44.20
37886;DHT22;23726;52.520;13.434;2022-09-21T08:22:43;22.40;44.00
37886;DHT22;23726;52.520;13.434;2022-09-21T08:25:09;22.40;43.80
37886;DHT22;23726;52.520;13.434;2022-09-21T08:27:35;22.40;44.20
37886;DHT22;23726;52.520;13.434;2022-09-21T08:30:02;22.40;44.10
37886;DHT22;23726;52.520;13.434;2022-09-21T08:32:27;22.40;44.00
37886;DHT22;23726;52.520;13.434;2022-09-21T08:34:53;22.40;44.20
37886;DHT22;23726;52.520;13.434;2022-09-21T08:37:18;22.40;44.00
37886;DHT22;23726;52.520;13.434;2022-09-21T08:39:46;22.40;44.10
37886;DHT22;23726;52.520;13.434;2022-09-21T08:42:41;22.40;44.10
37886;DHT22;23726;52.520;13.434;2022-09-21T08:45:15;22.40;44.10
37886;DHT22;23726;52.520;13.434;2022-09-21T08:47:48;22.40;44.10
37886;DHT22;23726;52.520;13.434;2022-09-21T08:50:36;22.40;44.20
37886;DHT22;23726;52.520;13.434;2022-09-21T08:53:12;22.40;44.10
37886;DHT22;23726;52.520;13.434;2022-09-21T08:55:39;22.40;44.10
37886;DHT22;23726;52.520;13.434;2022-09-21T08:58:24;22.40;44.30
37886;DHT22;23726;52.520;13.434;2022-09-21T09:14:34;22.40;44.30
37886;DHT22;23726;52.520;13.434;2022-09-21T09:17:26;22.40;44.30
37886;DHT22;23726;52.520;13.434;2022-09-21T09:20:06;22.40;44.30
37886;DHT22;23726;52.520;13.434;2022-09-21T09:22:42;22.40;44.20
37886;DHT22;23726;52.520;13.434;2022-09-21T09:25:20;22.40;44.30
37886;DHT22;23726;52.520;13.434;2022-09-21T09:27:51;22.40;44.20
37886;DHT22;23726;52.520;13.434;2022-09-21T09:30:27;22.40;44.80
37886;DHT22;23726;52.520;13.434;2022-09-21T09:33:10;22.40;44.30
37886;DHT22;23726;52.520;13.434;2022-09-21T09:35:47;22.40;44.20
37886;DHT22;23726;52.520;13.434;2022-09-21T09:41:28;22.40;44.20
37886;DHT22;23726;52.520;13.434;2022-09-21T09:47:09;22.40;44.30
37886;DHT22;23726;52.520;13.434;2022-09-21T09:49:59;22.40;44.30
37886;DHT22;23726;52.520;13.434;2022-09-21T09:52:26;22.40;44.30
37886;DHT22;23726;52.520;13.434;2022-09-21T09:54:52;22.40;44.30
37886;DHT22;23726;52.520;13.434;2022-09-21T09:57:37;22.40;44.30
37886;DHT22;23726;52.520;13.434;2022-09-21T10:00:05;22.40;44.40
37886;DHT22;23726;52.520;13.434;2022-09-21T10:02:54;22.40;44.30
37886;DHT22;23726;52.520;13.434;2022-09-21T10:07:56;22.40;44.30
37886;DHT22;23726;52.520;13.434;2022-09-21T10:10:28;22.40;44.20
37886;DHT22;23726;52.520;13.434;2022-09-21T10:13:15;22.40;44.20
37886;DHT22;23726;52.520;13.434;2022-09-21T10:18:42;22.40;44.30
37886;DHT22;23726;52.520;13.434;2022-09-21T10:21:34;22.40;44.30
37886;DHT22;23726;52.520;13.434;2022-09-21T10:24:14;22.40;44.30
37886;DHT22;23726;52.520;13.434;2022-09-21T10:26:56;22.40;44.40
37886;DHT22;23726;52.520;13.434;2022-09-21T10:29:41;22.40;44.40
37886;DHT22;23726;52.520;13.434;2022-09-21T10:35:12;22.40;44.40
37886;DHT22;23726;52.520;13.434;2022-09-21T10:37:40;22.40;44.40
37886;DHT22;23726;52.520;13.434;2022-09-21T10:40:26;22.40;44.40
37886;DHT22;23726;52.520;13.434;2022-09-21T10:42:57;22.40;44.40
37886;DHT22;23726;52.520;13.434;2022-09-21T10:45:34;22.40;44.40
37886;DHT22;23726;52.520;13.434;2022-09-21T10:48:14;22.40;44.40
37886;DHT22;23726;52.520;13.434;2022-09-21T10:50:43;22.40;44.40
37886;DHT22;23726;52.520;13.434;2022-09-21T10:53:11;22.40;44.30
37886;DHT22;23726;52.520;13.434;2022-09-21T10:55:39;22.40;44.30
37886;DHT22;23726;52.520;13.434;2022-09-21T10:58:10;22.40;44.30
37886;DHT22;23726;52.520;13.434;2022-09-21T11:00:47;22.40;44.20
37886;DHT22;23726;52.520;13.434;2022-09-21T11:06:27;22.40;44.10
37886;DHT22;23726;52.520;13.434;2022-09-21T11:09:06;22.40;44.00
37886;DHT22;23726;52.520;13.434;2022-09-21T11:11:48;22.40;44.00
37886;DHT22;23726;52.520;13.434;2022-09-21T11:17:37;22.40;43.50
37886;DHT22;23726;52.520;13.434;2022-09-21T11:20:34;22.40;43.80
37886;DHT22;23726;52.520;13.434;2022-09-21T11:26:10;22.40;43.90
37886;DHT22;23726;52.520;13.434;2022-09-21T11:28:51;22.40;44.00
37886;DHT22;23726;52.520;13.434;2022-09-21T11:37:00;22.40;43.10
37886;DHT22;23726;52.520;13.434;2022-09-21T11:39:49;22.40;43.50
37886;DHT22;23726;52.520;13.434;2022-09-21T11:42:31;22.40;43.30
37886;DHT22;23726;52.520;13.434;2022-09-21T11:45:00;22.40;43.20
37886;DHT22;23726;52.520;13.434;2022-09-21T11:47:54;22.40;43.10
37886;DHT22;23726;52.520;13.434;2022-09-21T11:50:56;22.40;43.00
37886;DHT22;23726;52.520;13.434;2022-09-21T11:58:51;22.30;42.90
37886;DHT22;23726;52.520;13.434;2022-09-21T12:12:20;22.30;42.50
37886;DHT22;23726;52.520;13.434;2022-09-21T12:17:46;22.40;42.60
37886;DHT22;23726;52.520;13.434;2022-09-21T12:23:11;22.30;42.40
37886;DHT22;23726;52.520;13.434;2022-09-21T12:25:43;22.30;42.30
37886;DHT22;23726;52.520;13.434;2022-09-21T12:28:16;22.30;42.30
37886;DHT22;23726;52.520;13.434;2022-09-21T12:30:46;22.30;41.90
37886;DHT22;23726;52.520;13.434;2022-09-21T12:33:26;22.40;42.20
37886;DHT22;23726;52.520;13.434;2022-09-21T12:36:09;22.40;42.00
37886;DHT22;23726;52.520;13.434;2022-09-21T12:38:57;22.40;42.50
37886;DHT22;23726;52.520;13.434;2022-09-21T12:44:35;22.30;41.70
37886;DHT22;23726;52.520;13.434;2022-09-21T12:50:28;22.40;41.70
37886;DHT22;23726;52.520;13.434;2022-09-21T12:52:58;22.40;41.80
37886;DHT22;23726;52.520;13.434;2022-09-21T13:03:55;22.30;41.80
37886;DHT22;23726;52.520;13.434;2022-09-21T13:09:00;22.30;42.10
37886;DHT22;23726;52.520;13.434;2022-09-21T13:11:30;22.30;41.90
37886;DHT22;23726;52.520;13.434;2022-09-21T13:14:01;22.30;41.80
37886;DHT22;23726;52.520;13.434;2022-09-21T13:16:32;22.30;41.70
37886;DHT22;23726;52.520;13.434;2022-09-21T13:18:59;22.40;41.60
37886;DHT22;23726;52.520;13.434;2022-09-21T13:21:27;22.30;41.90
37886;DHT22;23726;52.520;13.434;2022-09-21T13:24:04;22.40;41.90
37886;DHT22;23726;52.520;13.434;2022-09-21T13:26:41;22.40;42.00
37886;DHT22;23726;52.520;13.434;2022-09-21T13:31:57;22.40;41.60
37886;DHT22;23726;52.520;13.434;2022-09-21T13:39:35;22.40;41.90
37886;DHT22;23726;52.520;13.434;2022-09-21T13:47:41;22.40;42.10
37886;DHT22;23726;52.520;13.434;2022-09-21T13:50:27;22.40;41.90
37886;DHT22;23726;52.520;13.434;2022-09-21T13:53:06;22.40;41.80
37886;DHT22;23726;52.520;13.434;2022-09-21T13:55:37;22.40;41.70
37886;DHT22;23726;52.520;13.434;2022-09-21T13:58:06;22.40;41.70
37886;DHT22;23726;52.520;13.434;2022-09-21T14:00:48;22.40;41.70
37886;DHT22;23726;52.520;13.434;2022-09-21T14:03:31;22.40;41.80
37886;DHT22;23726;52.520;13.434;2022-09-21T14:06:12;22.40;42.00
37886;DHT22;23726;52.520;13.434;2022-09-21T14:08:44;22.40;42.10
37886;DHT22;23726;52.520;13.434;2022-09-21T14:11:16;22.40;42.00
37886;DHT22;23726;52.520;13.434;2022-09-21T14:24:46;22.50;42.10
37886;DHT22;23726;52.520;13.434;2022-09-21T14:27:35;22.50;42.10
37886;DHT22;23726;52.520;13.434;2022-09-21T14:32:36;22.50;42.00
37886;DHT22;23726;52.520;13.434;2022-09-21T14:35:15;22.50;41.90
37886;DHT22;23726;52.520;13.434;2022-09-21T14:37:49;22.50;41.80
37886;DHT22;23726;52.520;13.434;2022-09-21T14:40:36;22.50;41.60
37886;DHT22;23726;52.520;13.434;2022-09-21T14:43:09;22.60;41.70
37886;DHT22;23726;52.520;13.434;2022-09-21T14:48:45;22.70;41.60
37886;DHT22;23726;52.520;13.434;2022-09-21T14:54:14;22.70;41.50
37886;DHT22;23726;52.520;13.434;2022-09-21T15:02:31;22.70;41.00
37886;DHT22;23726;52.520;13.434;2022-09-21T15:08:08;22.70;41.00
37886;DHT22;23726;52.520;13.434;2022-09-21T15:11:09;22.70;40.40
37886;DHT22;23726;52.520;13.434;2022-09-21T15:16:41;22.70;40.40
37886;DHT22;23726;52.520;13.434;2022-09-21T15:21:40;22.80;40.20
37886;DHT22;23726;52.520;13.434;2022-09-21T15:24:26;22.80;39.90
37886;DHT22;23726;52.520;13.434;2022-09-21T15:27:01;22.80;40.00
37886;DHT22;23726;52.520;13.434;2022-09-21T15:29:29;22.80;40.00
37886;DHT22;23726;52.520;13.434;2022-09-21T15:31:56;22.80;39.70
37886;DHT22;23726;52.520;13.434;2022-09-21T15:34:22;22.80;39.80
37886;DHT22;23726;52.520;13.434;2022-09-21T15:36:48;22.80;39.70
37886;DHT22;23726;52.520;13.434;2022-09-21T15:39:30;22.90;39.60
37886;DHT22;23726;52.520;13.434;2022-09-21T15:44:34;22.90;39.50
37886;DHT22;23726;52.520;13.434;2022-09-21T15:47:06;22.90;39.20
37886;DHT22;23726;52.520;13.434;2022-09-21T15:49:34;22.90;39.20
37886;DHT22;23726;52.520;13.434;2022-09-21T15:52:10;22.80;39.30
37886;DHT22;23726;52.520;13.434;2022-09-21T15:54:43;22.80;39.20
37886;DHT22;23726;52.520;13.434;2022-09-21T15:57:35;22.80;39.30
37886;DHT22;23726;52.520;13.434;2022-09-21T16:02:37;22.80;39.10
37886;DHT22;23726;52.520;13.434;2022-09-21T16:05:06;22.70;39.30
37886;DHT22;23726;52.520;13.434;2022-09-21T16:07:35;22.70;39.20
37886;DHT22;23726;52.520;13.434;2022-09-21T16:10:36;22.70;39.20
37886;DHT22;23726;52.520;13.434;2022-09-21T16:16:21;22.70;39.50
37886;DHT22;23726;52.520;13.434;2022-09-21T16:18:51;22.70;39.00
37886;DHT22;23726;52.520;13.434;2022-09-21T16:21:29;22.60;39.50
37886;DHT22;23726;52.520;13.434;2022-09-21T16:24:15;22.60;39.40
37886;DHT22;23726;52.520;13.434;2022-09-21T16:26:54;22.60;39.10
37886;DHT22;23726;52.520;13.434;2022-09-21T16:29:23;22.60;38.90
37886;DHT22;23726;52.520;13.434;2022-09-21T16:31:51;22.60;39.10
37886;DHT22;23726;52.520;13.434;2022-09-21T16:34:38;22.60;38.90
37886;DHT22;23726;52.520;13.434;2022-09-21T16:39:54;22.50;38.80
37886;DHT22;23726;52.520;13.434;2022-09-21T16:42:21;22.60;38.70
37886;DHT22;23726;52.520;13.434;2022-09-21T16:44:47;22.50;39.10
37886;DHT22;23726;52.520;13.434;2022-09-21T16:47:21;22.50;38.60
37886;DHT22;23726;52.520;13.434;2022-09-21T16:49:56;22.50;38.70
37886;DHT22;23726;52.520;13.434;2022-09-21T16:52:37;22.50;39.10
37886;DHT22;23726;52.520;13.434;2022-09-21T16:55:06;22.50;39.10
37886;DHT22;23726;52.520;13.434;2022-09-21T16:57:34;22.50;39.10
37886;DHT22;23726;52.520;13.434;2022-09-21T17:00:13;22.50;38.80
37886;DHT22;23726;52.520;13.434;2022-09-21T17:02:47;22.50;38.90
37886;DHT22;23726;52.520;13.434;2022-09-21T17:05:21;22.40;38.70
37886;DHT22;23726;52.520;13.434;2022-09-21T17:07:57;22.50;38.70
37886;DHT22;23726;52.520;13.434;2022-09-21T17:10:29;22.50;38.80
37886;DHT22;23726;52.520;13.434;2022-09-21T17:12:57;22.50;39.20
37886;DHT22;23726;52.520;13.434;2022-09-21T17:15:24;22.40;38.80
37886;DHT22;23726;52.520;13.434;2022-09-21T17:17:50;22.50;39.20
37886;DHT22;23726;52.520;13.434;2022-09-21T17:20:22;22.50;39.20
37886;DHT22;23726;52.520;13.434;2022-09-21T17:22:49;22.40;39.30
37886;DHT22;23726;52.520;13.434;2022-09-21T17:25:18;22.50;39.40
37886;DHT22;23726;52.520;13.434;2022-09-21T17:27:43;22.40;39.40
37886;DHT22;23726;52.520;13.434;2022-09-21T17:30:13;22.40;39.50
37886;DHT22;23726;52.520;13.434;2022-09-21T17:32:40;22.50;39.60
37886;DHT22;23726;52.520;13.434;2022-09-21T17:37:58;22.50;40.10
37886;DHT22;23726;52.520;13.434;2022-09-21T17:40:25;22.50;40.30
37886;DHT22;23726;52.520;13.434;2022-09-21T17:42:53;22.50;40.20
37886;DHT22;23726;52.520;13.434;2022-09-21T17:45:44;22.50;40.30
37886;DHT22;23726;52.520;13.434;2022-09-21T17:48:19;22.40;40.40
37886;DHT22;23726;52.520;13.434;2022-09-21T17:50:48;22.40;40.70
37886;DHT22;23726;52.520;13.434;2022-09-21T17:53:15;22.50;40.80
37886;DHT22;23726;52.520;13.434;2022-09-21T17:56:24;22.50;40.80
37886;DHT22;23726;52.520;13.434;2022-09-21T17:58:57;22.40;40.90
37886;DHT22;23726;52.520;13.434;2022-09-21T18:01:33;22.40;40.90
37886;DHT22;23726;52.520;13.434;2022-09-21T18:04:01;22.50;41.00
37886;DHT22;23726;52.520;13.434;2022-09-21T18:06:28;22.40;41.10
37886;DHT22;23726;52.520;13.434;2022-09-21T18:08:54;22.40;41.10
37886;DHT22;23726;52.520;13.434;2022-09-21T18:14:19;22.40;41.10
37886;DHT22;23726;52.520;13.434;2022-09-21T18:16:54;22.50;41.10
37886;DHT22;23726;52.520;13.434;2022-09-21T18:22:33;22.40;41.20
37886;DHT22;23726;52.520;13.434;2022-09-21T18:25:13;22.40;41.30
37886;DHT22;23726;52.520;13.434;2022-09-21T18:27:40;22.40;41.50
37886;DHT22;23726;52.520;13.434;2022-09-21T18:30:06;22.40;41.40
37886;DHT22;23726;52.520;13.434;2022-09-21T18:38:28;22.50;41.40
37886;DHT22;23726;52.520;13.434;2022-09-21T18:41:04;22.50;41.60